Terminal Aerodrome Forecast
Issued by NWS Wichita, KS

Home | Current Version | Previous Version | Graphics & Text | Print | Product List | Glossary On
Versions: 1 2 3 4 5 6 7 8 9 10 11 12 13 14 15 16 17 18 19 20 21
000
FTUS43 KICT 250337 AAC
TAFICT
TAF AMD
KICT 250337Z 2504/2524 18017G25KT P6SM VCTS SCT040CB BKN140
      TEMPO 2505/2507 4SM -TSRA BKN025CB OVC070
     FM250700 29010KT P6SM SCT080 BKN250
     FM252100 03009KT P6SM SCT040 BKN100=

USA.gov is the U.S. government's official web portal to all federal, state and local government web resources and services.